sensor_id;sensor_type;location;lat;lon;timestamp;P1;durP1;ratioP1;P2;durP2;ratioP2
23555;SDS011;11956;53.184;8.578;2023-02-02T00:02:35;27.33;;;4.05;;
23555;SDS011;11956;53.184;8.578;2023-02-02T00:05:36;28.05;;;4.15;;
23555;SDS011;11956;53.184;8.578;2023-02-02T00:08:37;28.35;;;4.22;;
23555;SDS011;11956;53.184;8.578;2023-02-02T00:11:38;23.23;;;4.20;;
23555;SDS011;11956;53.184;8.578;2023-02-02T00:14:40;27.73;;;4.15;;
23555;SDS011;11956;53.184;8.578;2023-02-02T00:17:41;28.25;;;4.55;;
23555;SDS011;11956;53.184;8.578;2023-02-02T00:20:42;30.75;;;4.70;;
23555;SDS011;11956;53.184;8.578;2023-02-02T00:23:44;29.05;;;4.38;;
23555;SDS011;11956;53.184;8.578;2023-02-02T00:26:46;35.03;;;5.07;;
23555;SDS011;11956;53.184;8.578;2023-02-02T00:29:51;31.63;;;4.32;;
23555;SDS011;11956;53.184;8.578;2023-02-02T00:32:52;32.88;;;5.10;;
23555;SDS011;11956;53.184;8.578;2023-02-02T00:35:53;29.92;;;4.18;;
23555;SDS011;11956;53.184;8.578;2023-02-02T00:38:54;29.00;;;4.43;;
23555;SDS011;11956;53.184;8.578;2023-02-02T00:41:56;32.83;;;5.53;;
23555;SDS011;11956;53.184;8.578;2023-02-02T00:44:57;28.13;;;4.57;;
23555;SDS011;11956;53.184;8.578;2023-02-02T00:48:18;36.50;;;4.38;;
23555;SDS011;11956;53.184;8.578;2023-02-02T00:51:19;27.75;;;4.55;;
23555;SDS011;11956;53.184;8.578;2023-02-02T00:54:21;31.45;;;4.10;;
23555;SDS011;11956;53.184;8.578;2023-02-02T00:57:22;25.80;;;3.90;;
23555;SDS011;11956;53.184;8.578;2023-02-02T01:00:38;26.63;;;3.55;;
23555;SDS011;11956;53.184;8.578;2023-02-02T01:03:39;29.30;;;3.97;;
23555;SDS011;11956;53.184;8.578;2023-02-02T01:06:40;20.92;;;3.63;;
23555;SDS011;11956;53.184;8.578;2023-02-02T01:09:41;25.30;;;3.40;;
23555;SDS011;11956;53.184;8.578;2023-02-02T01:12:42;20.48;;;3.05;;
23555;SDS011;11956;53.184;8.578;2023-02-02T01:15:44;22.48;;;3.95;;
23555;SDS011;11956;53.184;8.578;2023-02-02T01:18:45;16.45;;;2.95;;
23555;SDS011;11956;53.184;8.578;2023-02-02T01:21:46;19.65;;;3.20;;
23555;SDS011;11956;53.184;8.578;2023-02-02T01:24:46;23.17;;;3.10;;
23555;SDS011;11956;53.184;8.578;2023-02-02T01:27:47;24.17;;;3.50;;
23555;SDS011;11956;53.184;8.578;2023-02-02T01:30:48;27.77;;;4.05;;
23555;SDS011;11956;53.184;8.578;2023-02-02T01:33:49;24.15;;;3.78;;
23555;SDS011;11956;53.184;8.578;2023-02-02T01:36:50;27.30;;;4.10;;
23555;SDS011;11956;53.184;8.578;2023-02-02T01:39:53;38.13;;;4.97;;
23555;SDS011;11956;53.184;8.578;2023-02-02T01:42:54;27.60;;;3.58;;
23555;SDS011;11956;53.184;8.578;2023-02-02T01:45:55;30.50;;;4.47;;
23555;SDS011;11956;53.184;8.578;2023-02-02T01:49:09;27.60;;;4.28;;
23555;SDS011;11956;53.184;8.578;2023-02-02T01:52:16;40.10;;;5.35;;
23555;SDS011;11956;53.184;8.578;2023-02-02T01:55:19;29.13;;;4.47;;
23555;SDS011;11956;53.184;8.578;2023-02-02T01:58:27;32.63;;;4.22;;
23555;SDS011;11956;53.184;8.578;2023-02-02T02:01:33;31.40;;;4.50;;
23555;SDS011;11956;53.184;8.578;2023-02-02T02:04:33;34.60;;;5.18;;
23555;SDS011;11956;53.184;8.578;2023-02-02T02:07:35;20.95;;;3.88;;
23555;SDS011;11956;53.184;8.578;2023-02-02T02:10:39;25.00;;;4.28;;
23555;SDS011;11956;53.184;8.578;2023-02-02T02:13:40;22.95;;;4.10;;
23555;SDS011;11956;53.184;8.578;2023-02-02T02:38:35;28.95;;;3.63;;
23555;SDS011;11956;53.184;8.578;2023-02-02T02:41:48;30.45;;;3.85;;
23555;SDS011;11956;53.184;8.578;2023-02-02T02:44:55;22.52;;;3.45;;
23555;SDS011;11956;53.184;8.578;2023-02-02T02:48:02;24.17;;;3.47;;
23555;SDS011;11956;53.184;8.578;2023-02-02T02:51:07;26.30;;;2.78;;
23555;SDS011;11956;53.184;8.578;2023-02-02T02:54:44;20.98;;;4.10;;
23555;SDS011;11956;53.184;8.578;2023-02-02T03:01:40;23.02;;;3.55;;
23555;SDS011;11956;53.184;8.578;2023-02-02T03:08:43;26.58;;;4.93;;
23555;SDS011;11956;53.184;8.578;2023-02-02T03:11:50;29.80;;;3.90;;
23555;SDS011;11956;53.184;8.578;2023-02-02T03:14:50;26.40;;;3.83;;
23555;SDS011;11956;53.184;8.578;2023-02-02T03:17:51;26.25;;;3.88;;
23555;SDS011;11956;53.184;8.578;2023-02-02T03:20:53;25.83;;;3.40;;
23555;SDS011;11956;53.184;8.578;2023-02-02T03:23:54;30.00;;;4.43;;
23555;SDS011;11956;53.184;8.578;2023-02-02T03:26:55;26.75;;;4.28;;
23555;SDS011;11956;53.184;8.578;2023-02-02T03:29:56;24.42;;;3.53;;
23555;SDS011;11956;53.184;8.578;2023-02-02T03:32:57;33.53;;;4.65;;
23555;SDS011;11956;53.184;8.578;2023-02-02T03:35:58;26.23;;;3.33;;
23555;SDS011;11956;53.184;8.578;2023-02-02T03:38:59;28.98;;;4.00;;
23555;SDS011;11956;53.184;8.578;2023-02-02T03:42:00;27.65;;;3.30;;
23555;SDS011;11956;53.184;8.578;2023-02-02T03:45:01;29.52;;;4.30;;
23555;SDS011;11956;53.184;8.578;2023-02-02T03:48:02;25.63;;;3.63;;
23555;SDS011;11956;53.184;8.578;2023-02-02T03:51:08;29.10;;;4.40;;
23555;SDS011;11956;53.184;8.578;2023-02-02T03:54:12;24.08;;;3.40;;
23555;SDS011;11956;53.184;8.578;2023-02-02T03:57:14;26.17;;;4.13;;
23555;SDS011;11956;53.184;8.578;2023-02-02T04:00:15;30.02;;;4.20;;
23555;SDS011;11956;53.184;8.578;2023-02-02T04:03:17;26.48;;;3.90;;
23555;SDS011;11956;53.184;8.578;2023-02-02T04:06:18;31.25;;;4.20;;
23555;SDS011;11956;53.184;8.578;2023-02-02T04:09:19;29.48;;;4.00;;
23555;SDS011;11956;53.184;8.578;2023-02-02T04:12:20;33.65;;;4.63;;
23555;SDS011;11956;53.184;8.578;2023-02-02T04:15:21;33.65;;;3.90;;
23555;SDS011;11956;53.184;8.578;2023-02-02T04:18:22;29.70;;;4.60;;
23555;SDS011;11956;53.184;8.578;2023-02-02T04:21:23;30.25;;;3.72;;
23555;SDS011;11956;53.184;8.578;2023-02-02T04:24:23;27.58;;;3.72;;
23555;SDS011;11956;53.184;8.578;2023-02-02T04:27:24;29.23;;;4.38;;
23555;SDS011;11956;53.184;8.578;2023-02-02T04:30:25;29.40;;;4.28;;
23555;SDS011;11956;53.184;8.578;2023-02-02T04:33:26;33.88;;;4.38;;
23555;SDS011;11956;53.184;8.578;2023-02-02T04:36:28;24.90;;;4.40;;
23555;SDS011;11956;53.184;8.578;2023-02-02T04:39:29;34.60;;;4.38;;
23555;SDS011;11956;53.184;8.578;2023-02-02T04:42:30;32.20;;;4.70;;
23555;SDS011;11956;53.184;8.578;2023-02-02T04:45:32;28.10;;;4.53;;
23555;SDS011;11956;53.184;8.578;2023-02-02T04:48:33;42.97;;;4.95;;
23555;SDS011;11956;53.184;8.578;2023-02-02T04:51:34;33.13;;;5.05;;
23555;SDS011;11956;53.184;8.578;2023-02-02T04:54:35;31.17;;;4.20;;
23555;SDS011;11956;53.184;8.578;2023-02-02T04:57:36;34.47;;;4.13;;
23555;SDS011;11956;53.184;8.578;2023-02-02T05:00:37;35.25;;;5.25;;
23555;SDS011;11956;53.184;8.578;2023-02-02T05:03:38;26.70;;;4.13;;
23555;SDS011;11956;53.184;8.578;2023-02-02T05:06:39;28.50;;;3.80;;
23555;SDS011;11956;53.184;8.578;2023-02-02T05:09:40;28.67;;;4.57;;
23555;SDS011;11956;53.184;8.578;2023-02-02T05:12:41;31.02;;;4.10;;
23555;SDS011;11956;53.184;8.578;2023-02-02T05:15:42;35.22;;;4.30;;
23555;SDS011;11956;53.184;8.578;2023-02-02T05:18:47;34.78;;;5.05;;
23555;SDS011;11956;53.184;8.578;2023-02-02T05:21:52;36.05;;;4.43;;
23555;SDS011;11956;53.184;8.578;2023-02-02T05:24:54;37.90;;;5.35;;
23555;SDS011;11956;53.184;8.578;2023-02-02T05:27:55;32.38;;;4.75;;
23555;SDS011;11956;53.184;8.578;2023-02-02T05:30:56;33.75;;;4.10;;
23555;SDS011;11956;53.184;8.578;2023-02-02T05:33:57;26.48;;;4.05;;
23555;SDS011;11956;53.184;8.578;2023-02-02T05:36:58;25.50;;;3.50;;
23555;SDS011;11956;53.184;8.578;2023-02-02T05:39:59;27.45;;;4.10;;
23555;SDS011;11956;53.184;8.578;2023-02-02T05:43:00;33.60;;;4.18;;
23555;SDS011;11956;53.184;8.578;2023-02-02T05:46:01;30.27;;;4.38;;
23555;SDS011;11956;53.184;8.578;2023-02-02T05:49:02;29.88;;;4.25;;
23555;SDS011;11956;53.184;8.578;2023-02-02T05:52:06;36.13;;;4.53;;
23555;SDS011;11956;53.184;8.578;2023-02-02T05:55:14;24.58;;;3.78;;
23555;SDS011;11956;53.184;8.578;2023-02-02T05:58:15;37.50;;;5.45;;
23555;SDS011;11956;53.184;8.578;2023-02-02T06:01:16;36.55;;;4.68;;
23555;SDS011;11956;53.184;8.578;2023-02-02T06:04:18;37.97;;;5.20;;
23555;SDS011;11956;53.184;8.578;2023-02-02T06:07:19;30.23;;;4.10;;
23555;SDS011;11956;53.184;8.578;2023-02-02T06:10:20;31.33;;;5.07;;
23555;SDS011;11956;53.184;8.578;2023-02-02T06:13:21;43.35;;;5.03;;
23555;SDS011;11956;53.184;8.578;2023-02-02T06:16:22;25.08;;;4.25;;
23555;SDS011;11956;53.184;8.578;2023-02-02T06:19:23;33.80;;;5.60;;
23555;SDS011;11956;53.184;8.578;2023-02-02T06:22:24;38.63;;;5.13;;
23555;SDS011;11956;53.184;8.578;2023-02-02T06:25:25;35.03;;;5.05;;
23555;SDS011;11956;53.184;8.578;2023-02-02T06:28:26;33.58;;;4.63;;
23555;SDS011;11956;53.184;8.578;2023-02-02T06:31:27;34.42;;;4.65;;
23555;SDS011;11956;53.184;8.578;2023-02-02T06:34:28;41.10;;;4.88;;
23555;SDS011;11956;53.184;8.578;2023-02-02T06:37:29;44.75;;;5.35;;
23555;SDS011;11956;53.184;8.578;2023-02-02T06:40:30;35.47;;;4.43;;
23555;SDS011;11956;53.184;8.578;2023-02-02T06:43:30;30.20;;;4.32;;
23555;SDS011;11956;53.184;8.578;2023-02-02T06:46:31;32.42;;;4.20;;
23555;SDS011;11956;53.184;8.578;2023-02-02T06:49:32;43.38;;;5.20;;
23555;SDS011;11956;53.184;8.578;2023-02-02T06:52:33;46.88;;;5.32;;
23555;SDS011;11956;53.184;8.578;2023-02-02T06:55:34;47.78;;;5.38;;
23555;SDS011;11956;53.184;8.578;2023-02-02T06:58:35;32.38;;;4.18;;
23555;SDS011;11956;53.184;8.578;2023-02-02T07:01:36;41.67;;;5.05;;
23555;SDS011;11956;53.184;8.578;2023-02-02T07:04:36;37.13;;;5.10;;
23555;SDS011;11956;53.184;8.578;2023-02-02T07:07:37;37.97;;;5.82;;
23555;SDS011;11956;53.184;8.578;2023-02-02T07:10:38;39.45;;;5.32;;
23555;SDS011;11956;53.184;8.578;2023-02-02T07:13:40;32.88;;;4.63;;
23555;SDS011;11956;53.184;8.578;2023-02-02T07:16:41;40.53;;;5.72;;
23555;SDS011;11956;53.184;8.578;2023-02-02T07:19:42;37.92;;;5.30;;
23555;SDS011;11956;53.184;8.578;2023-02-02T07:22:43;38.28;;;5.78;;
23555;SDS011;11956;53.184;8.578;2023-02-02T07:25:44;44.40;;;5.32;;
23555;SDS011;11956;53.184;8.578;2023-02-02T07:28:45;33.83;;;4.57;;
23555;SDS011;11956;53.184;8.578;2023-02-02T07:31:46;48.08;;;5.32;;
23555;SDS011;11956;53.184;8.578;2023-02-02T07:34:47;37.13;;;5.30;;
23555;SDS011;11956;53.184;8.578;2023-02-02T07:37:52;37.33;;;5.40;;
23555;SDS011;11956;53.184;8.578;2023-02-02T07:40:53;35.92;;;5.25;;
23555;SDS011;11956;53.184;8.578;2023-02-02T07:43:54;38.33;;;5.50;;
23555;SDS011;11956;53.184;8.578;2023-02-02T07:46:55;42.85;;;6.00;;
23555;SDS011;11956;53.184;8.578;2023-02-02T07:49:56;33.47;;;5.25;;
23555;SDS011;11956;53.184;8.578;2023-02-02T07:52:58;27.52;;;4.28;;
23555;SDS011;11956;53.184;8.578;2023-02-02T07:59:08;43.17;;;5.55;;
23555;SDS011;11956;53.184;8.578;2023-02-02T08:02:10;30.75;;;4.95;;
23555;SDS011;11956;53.184;8.578;2023-02-02T08:05:11;34.15;;;5.32;;
23555;SDS011;11956;53.184;8.578;2023-02-02T08:08:12;28.33;;;5.40;;
23555;SDS011;11956;53.184;8.578;2023-02-02T08:11:13;28.58;;;4.72;;
23555;SDS011;11956;53.184;8.578;2023-02-02T08:14:17;38.22;;;5.72;;
23555;SDS011;11956;53.184;8.578;2023-02-02T08:17:18;34.13;;;5.10;;
23555;SDS011;11956;53.184;8.578;2023-02-02T08:20:19;31.30;;;4.68;;
23555;SDS011;11956;53.184;8.578;2023-02-02T08:23:20;28.08;;;4.63;;
23555;SDS011;11956;53.184;8.578;2023-02-02T08:26:24;20.67;;;4.43;;
23555;SDS011;11956;53.184;8.578;2023-02-02T08:29:27;24.58;;;4.05;;
23555;SDS011;11956;53.184;8.578;2023-02-02T08:32:29;24.08;;;4.55;;
23555;SDS011;11956;53.184;8.578;2023-02-02T08:35:30;21.60;;;4.30;;
23555;SDS011;11956;53.184;8.578;2023-02-02T08:38:31;25.23;;;4.55;;
23555;SDS011;11956;53.184;8.578;2023-02-02T08:41:32;26.83;;;4.82;;
23555;SDS011;11956;53.184;8.578;2023-02-02T08:44:33;31.40;;;5.00;;
23555;SDS011;11956;53.184;8.578;2023-02-02T08:47:34;25.65;;;4.78;;
23555;SDS011;11956;53.184;8.578;2023-02-02T08:50:35;23.35;;;4.30;;
23555;SDS011;11956;53.184;8.578;2023-02-02T08:53:36;18.33;;;4.00;;
23555;SDS011;11956;53.184;8.578;2023-02-02T08:56:37;18.15;;;3.75;;
23555;SDS011;11956;53.184;8.578;2023-02-02T08:59:39;22.45;;;4.30;;
23555;SDS011;11956;53.184;8.578;2023-02-02T09:02:40;21.48;;;4.55;;
23555;SDS011;11956;53.184;8.578;2023-02-02T09:05:40;24.17;;;4.15;;
23555;SDS011;11956;53.184;8.578;2023-02-02T09:08:41;22.40;;;4.80;;
23555;SDS011;11956;53.184;8.578;2023-02-02T09:11:43;22.73;;;3.88;;
23555;SDS011;11956;53.184;8.578;2023-02-02T09:14:44;20.02;;;3.92;;
23555;SDS011;11956;53.184;8.578;2023-02-02T09:17:45;19.30;;;4.30;;
23555;SDS011;11956;53.184;8.578;2023-02-02T09:20:46;20.48;;;4.50;;
23555;SDS011;11956;53.184;8.578;2023-02-02T09:23:48;19.67;;;4.20;;
23555;SDS011;11956;53.184;8.578;2023-02-02T09:26:50;14.38;;;3.63;;
23555;SDS011;11956;53.184;8.578;2023-02-02T09:29:51;22.80;;;4.63;;
23555;SDS011;11956;53.184;8.578;2023-02-02T09:32:52;13.32;;;3.58;;
23555;SDS011;11956;53.184;8.578;2023-02-02T09:35:53;18.95;;;3.67;;
23555;SDS011;11956;53.184;8.578;2023-02-02T09:38:54;21.60;;;4.57;;
23555;SDS011;11956;53.184;8.578;2023-02-02T09:42:02;18.20;;;4.00;;
23555;SDS011;11956;53.184;8.578;2023-02-02T09:49:01;28.67;;;5.28;;
23555;SDS011;11956;53.184;8.578;2023-02-02T09:52:14;15.18;;;3.83;;
23555;SDS011;11956;53.184;8.578;2023-02-02T09:55:42;21.83;;;4.55;;
23555;SDS011;11956;53.184;8.578;2023-02-02T09:58:53;18.88;;;3.95;;
23555;SDS011;11956;53.184;8.578;2023-02-02T10:01:56;26.23;;;5.15;;
23555;SDS011;11956;53.184;8.578;2023-02-02T10:05:19;15.35;;;3.42;;
23555;SDS011;11956;53.184;8.578;2023-02-02T10:08:27;13.77;;;3.47;;
23555;SDS011;11956;53.184;8.578;2023-02-02T10:15:13;15.93;;;3.75;;
23555;SDS011;11956;53.184;8.578;2023-02-02T10:18:18;13.93;;;3.35;;
23555;SDS011;11956;53.184;8.578;2023-02-02T10:21:45;12.90;;;3.30;;
23555;SDS011;11956;53.184;8.578;2023-02-02T10:25:13;15.65;;;3.67;;
23555;SDS011;11956;53.184;8.578;2023-02-02T10:28:18;14.00;;;3.05;;
23555;SDS011;11956;53.184;8.578;2023-02-02T10:37:59;12.20;;;3.20;;
23555;SDS011;11956;53.184;8.578;2023-02-02T10:41:25;15.05;;;3.30;;
23555;SDS011;11956;53.184;8.578;2023-02-02T10:47:42;19.00;;;3.70;;
23555;SDS011;11956;53.184;8.578;2023-02-02T10:50:48;20.10;;;3.53;;
23555;SDS011;11956;53.184;8.578;2023-02-02T10:53:54;25.13;;;3.90;;
23555;SDS011;11956;53.184;8.578;2023-02-02T10:56:57;17.77;;;3.28;;
23555;SDS011;11956;53.184;8.578;2023-02-02T11:00:09;23.92;;;4.15;;
23555;SDS011;11956;53.184;8.578;2023-02-02T11:03:35;26.02;;;4.00;;
23555;SDS011;11956;53.184;8.578;2023-02-02T11:06:37;26.65;;;3.53;;
23555;SDS011;11956;53.184;8.578;2023-02-02T11:09:51;25.83;;;3.88;;
23555;SDS011;11956;53.184;8.578;2023-02-02T11:12:52;24.77;;;4.07;;
23555;SDS011;11956;53.184;8.578;2023-02-02T11:16:39;27.83;;;4.55;;
23555;SDS011;11956;53.184;8.578;2023-02-02T11:19:26;24.73;;;3.40;;
23555;SDS011;11956;53.184;8.578;2023-02-02T11:22:32;22.58;;;4.45;;
23555;SDS011;11956;53.184;8.578;2023-02-02T11:25:37;25.15;;;3.90;;
23555;SDS011;11956;53.184;8.578;2023-02-02T11:28:39;26.48;;;4.28;;
23555;SDS011;11956;53.184;8.578;2023-02-02T11:31:40;22.42;;;3.75;;
23555;SDS011;11956;53.184;8.578;2023-02-02T11:34:42;33.63;;;8.20;;
23555;SDS011;11956;53.184;8.578;2023-02-02T11:41:09;25.48;;;3.90;;
23555;SDS011;11956;53.184;8.578;2023-02-02T11:44:16;28.55;;;4.32;;
23555;SDS011;11956;53.184;8.578;2023-02-02T11:47:30;27.38;;;4.45;;
23555;SDS011;11956;53.184;8.578;2023-02-02T11:50:33;20.23;;;3.65;;
23555;SDS011;11956;53.184;8.578;2023-02-02T11:53:38;33.28;;;4.30;;
23555;SDS011;11956;53.184;8.578;2023-02-02T11:56:49;33.15;;;3.92;;
23555;SDS011;11956;53.184;8.578;2023-02-02T12:03:20;31.50;;;3.63;;
23555;SDS011;11956;53.184;8.578;2023-02-02T12:06:26;21.67;;;4.10;;
23555;SDS011;11956;53.184;8.578;2023-02-02T12:09:37;28.08;;;3.42;;
23555;SDS011;11956;53.184;8.578;2023-02-02T12:23:20;25.88;;;3.60;;
23555;SDS011;11956;53.184;8.578;2023-02-02T12:26:43;28.25;;;4.05;;
23555;SDS011;11956;53.184;8.578;2023-02-02T12:33:49;27.97;;;3.40;;
23555;SDS011;11956;53.184;8.578;2023-02-02T12:43:47;24.10;;;3.55;;
23555;SDS011;11956;53.184;8.578;2023-02-02T12:53:33;20.50;;;3.65;;
23555;SDS011;11956;53.184;8.578;2023-02-02T12:57:05;20.65;;;3.83;;
23555;SDS011;11956;53.184;8.578;2023-02-02T13:01:24;28.40;;;3.40;;
23555;SDS011;11956;53.184;8.578;2023-02-02T13:04:24;27.80;;;3.72;;
23555;SDS011;11956;53.184;8.578;2023-02-02T13:07:46;19.05;;;3.03;;
23555;SDS011;11956;53.184;8.578;2023-02-02T13:10:56;20.02;;;3.58;;
23555;SDS011;11956;53.184;8.578;2023-02-02T13:14:10;20.02;;;3.53;;
23555;SDS011;11956;53.184;8.578;2023-02-02T13:17:38;21.73;;;3.03;;
23555;SDS011;11956;53.184;8.578;2023-02-02T13:20:50;17.55;;;3.63;;
23555;SDS011;11956;53.184;8.578;2023-02-02T13:23:56;20.60;;;3.75;;
23555;SDS011;11956;53.184;8.578;2023-02-02T13:27:01;24.27;;;3.17;;
23555;SDS011;11956;53.184;8.578;2023-02-02T13:30:21;15.75;;;3.03;;
23555;SDS011;11956;53.184;8.578;2023-02-02T13:33:35;20.10;;;3.25;;
23555;SDS011;11956;53.184;8.578;2023-02-02T13:36:38;15.97;;;2.80;;
23555;SDS011;11956;53.184;8.578;2023-02-02T13:39:44;23.13;;;3.17;;
23555;SDS011;11956;53.184;8.578;2023-02-02T13:47:03;20.85;;;3.03;;
23555;SDS011;11956;53.184;8.578;2023-02-02T13:49:47;18.30;;;3.47;;
23555;SDS011;11956;53.184;8.578;2023-02-02T14:06:56;17.00;;;3.83;;
23555;SDS011;11956;53.184;8.578;2023-02-02T14:10:03;17.52;;;2.88;;
23555;SDS011;11956;53.184;8.578;2023-02-02T14:13:14;14.88;;;2.78;;
23555;SDS011;11956;53.184;8.578;2023-02-02T14:25:47;22.42;;;3.13;;
23555;SDS011;11956;53.184;8.578;2023-02-02T14:28:52;21.15;;;2.80;;
23555;SDS011;11956;53.184;8.578;2023-02-02T14:31:53;15.85;;;3.10;;
23555;SDS011;11956;53.184;8.578;2023-02-02T14:42:14;16.52;;;3.05;;
23555;SDS011;11956;53.184;8.578;2023-02-02T14:46:42;23.92;;;2.95;;
23555;SDS011;11956;53.184;8.578;2023-02-02T14:49:25;13.68;;;3.35;;
23555;SDS011;11956;53.184;8.578;2023-02-02T14:52:34;14.27;;;2.45;;
23555;SDS011;11956;53.184;8.578;2023-02-02T14:55:36;14.57;;;3.03;;
23555;SDS011;11956;53.184;8.578;2023-02-02T14:58:58;22.08;;;3.85;;
23555;SDS011;11956;53.184;8.578;2023-02-02T15:02:04;16.23;;;3.70;;
23555;SDS011;11956;53.184;8.578;2023-02-02T15:08:28;15.57;;;3.60;;
23555;SDS011;11956;53.184;8.578;2023-02-02T15:11:31;17.77;;;3.58;;
23555;SDS011;11956;53.184;8.578;2023-02-02T15:18:17;18.58;;;3.63;;
23555;SDS011;11956;53.184;8.578;2023-02-02T15:21:28;16.38;;;2.90;;
23555;SDS011;11956;53.184;8.578;2023-02-02T15:24:31;15.57;;;3.45;;
23555;SDS011;11956;53.184;8.578;2023-02-02T15:27:36;13.30;;;3.17;;
23555;SDS011;11956;53.184;8.578;2023-02-02T15:30:40;15.70;;;3.03;;
23555;SDS011;11956;53.184;8.578;2023-02-02T15:33:45;14.20;;;3.22;;
23555;SDS011;11956;53.184;8.578;2023-02-02T15:36:51;10.80;;;2.30;;
23555;SDS011;11956;53.184;8.578;2023-02-02T15:39:59;14.50;;;2.83;;
23555;SDS011;11956;53.184;8.578;2023-02-02T15:43:03;17.17;;;3.47;;
23555;SDS011;11956;53.184;8.578;2023-02-02T15:46:09;17.92;;;4.07;;
23555;SDS011;11956;53.184;8.578;2023-02-02T15:49:30;14.32;;;3.63;;
23555;SDS011;11956;53.184;8.578;2023-02-02T15:52:33;13.85;;;4.10;;
23555;SDS011;11956;53.184;8.578;2023-02-02T15:55:37;18.15;;;4.50;;
23555;SDS011;11956;53.184;8.578;2023-02-02T15:58:37;16.27;;;4.70;;
23555;SDS011;11956;53.184;8.578;2023-02-02T16:01:46;15.05;;;3.70;;
23555;SDS011;11956;53.184;8.578;2023-02-02T16:04:55;16.73;;;4.32;;
23555;SDS011;11956;53.184;8.578;2023-02-02T16:07:57;11.32;;;4.32;;
23555;SDS011;11956;53.184;8.578;2023-02-02T16:11:10;14.50;;;4.15;;
23555;SDS011;11956;53.184;8.578;2023-02-02T16:14:14;12.32;;;4.35;;
23555;SDS011;11956;53.184;8.578;2023-02-02T16:17:20;14.48;;;3.97;;
23555;SDS011;11956;53.184;8.578;2023-02-02T16:20:26;12.45;;;3.30;;
23555;SDS011;11956;53.184;8.578;2023-02-02T16:23:33;12.32;;;3.28;;
23555;SDS011;11956;53.184;8.578;2023-02-02T16:26:35;16.58;;;3.30;;
23555;SDS011;11956;53.184;8.578;2023-02-02T16:29:36;13.07;;;2.80;;
23555;SDS011;11956;53.184;8.578;2023-02-02T16:32:40;8.13;;;2.53;;
23555;SDS011;11956;53.184;8.578;2023-02-02T16:35:43;10.10;;;2.33;;
23555;SDS011;11956;53.184;8.578;2023-02-02T16:38:44;9.20;;;2.75;;
23555;SDS011;11956;53.184;8.578;2023-02-02T16:41:45;8.45;;;2.58;;
23555;SDS011;11956;53.184;8.578;2023-02-02T16:44:48;11.13;;;2.80;;
23555;SDS011;11956;53.184;8.578;2023-02-02T16:47:50;13.27;;;2.85;;
23555;SDS011;11956;53.184;8.578;2023-02-02T16:51:01;14.60;;;3.15;;
23555;SDS011;11956;53.184;8.578;2023-02-02T16:54:18;11.27;;;3.30;;
23555;SDS011;11956;53.184;8.578;2023-02-02T16:57:30;10.05;;;2.90;;
23555;SDS011;11956;53.184;8.578;2023-02-02T17:00:32;10.02;;;3.03;;
23555;SDS011;11956;53.184;8.578;2023-02-02T17:03:34;10.82;;;3.25;;
23555;SDS011;11956;53.184;8.578;2023-02-02T17:06:37;11.10;;;3.78;;
23555;SDS011;11956;53.184;8.578;2023-02-02T17:09:39;10.02;;;3.58;;
23555;SDS011;11956;53.184;8.578;2023-02-02T17:12:42;15.15;;;3.63;;
23555;SDS011;11956;53.184;8.578;2023-02-02T17:15:49;12.88;;;3.15;;
23555;SDS011;11956;53.184;8.578;2023-02-02T17:18:52;12.65;;;3.10;;
23555;SDS011;11956;53.184;8.578;2023-02-02T17:21:53;13.65;;;5.03;;
23555;SDS011;11956;53.184;8.578;2023-02-02T17:24:55;6.90;;;2.45;;
23555;SDS011;11956;53.184;8.578;2023-02-02T17:27:58;19.60;;;3.97;;
23555;SDS011;11956;53.184;8.578;2023-02-02T17:31:01;13.95;;;2.80;;
23555;SDS011;11956;53.184;8.578;2023-02-02T17:34:10;10.73;;;3.10;;
23555;SDS011;11956;53.184;8.578;2023-02-02T17:37:15;12.25;;;3.10;;
23555;SDS011;11956;53.184;8.578;2023-02-02T17:40:17;11.18;;;3.28;;
23555;SDS011;11956;53.184;8.578;2023-02-02T17:43:21;14.82;;;3.08;;
23555;SDS011;11956;53.184;8.578;2023-02-02T17:46:22;13.95;;;3.30;;
23555;SDS011;11956;53.184;8.578;2023-02-02T17:49:23;10.88;;;3.65;;
23555;SDS011;11956;53.184;8.578;2023-02-02T17:52:24;15.98;;;3.55;;
23555;SDS011;11956;53.184;8.578;2023-02-02T17:55:33;12.80;;;3.97;;
23555;SDS011;11956;53.184;8.578;2023-02-02T17:58:36;17.58;;;4.05;;
23555;SDS011;11956;53.184;8.578;2023-02-02T18:01:37;14.38;;;4.40;;
23555;SDS011;11956;53.184;8.578;2023-02-02T18:04:40;11.32;;;3.80;;
23555;SDS011;11956;53.184;8.578;2023-02-02T18:07:42;13.00;;;3.88;;
23555;SDS011;11956;53.184;8.578;2023-02-02T18:10:43;14.52;;;4.10;;
23555;SDS011;11956;53.184;8.578;2023-02-02T18:13:44;16.30;;;4.28;;
23555;SDS011;11956;53.184;8.578;2023-02-02T18:16:45;16.20;;;4.38;;
23555;SDS011;11956;53.184;8.578;2023-02-02T18:19:47;15.27;;;4.28;;
23555;SDS011;11956;53.184;8.578;2023-02-02T18:25:51;12.15;;;4.60;;
23555;SDS011;11956;53.184;8.578;2023-02-02T18:28:52;16.50;;;6.05;;
23555;SDS011;11956;53.184;8.578;2023-02-02T18:31:52;13.95;;;4.55;;
23555;SDS011;11956;53.184;8.578;2023-02-02T18:34:53;16.05;;;6.30;;
23555;SDS011;11956;53.184;8.578;2023-02-02T18:37:55;21.38;;;7.05;;
23555;SDS011;11956;53.184;8.578;2023-02-02T18:40:56;16.05;;;5.50;;
23555;SDS011;11956;53.184;8.578;2023-02-02T18:43:57;15.85;;;6.25;;
23555;SDS011;11956;53.184;8.578;2023-02-02T18:46:58;21.33;;;6.15;;
23555;SDS011;11956;53.184;8.578;2023-02-02T18:49:59;17.58;;;5.90;;
23555;SDS011;11956;53.184;8.578;2023-02-02T18:53:00;23.50;;;7.10;;
23555;SDS011;11956;53.184;8.578;2023-02-02T18:56:04;11.85;;;5.40;;
23555;SDS011;11956;53.184;8.578;2023-02-02T18:59:07;22.85;;;10.15;;
23555;SDS011;11956;53.184;8.578;2023-02-02T19:02:12;25.45;;;8.60;;
23555;SDS011;11956;53.184;8.578;2023-02-02T19:05:15;17.73;;;7.35;;
23555;SDS011;11956;53.184;8.578;2023-02-02T19:08:35;16.45;;;6.57;;
23555;SDS011;11956;53.184;8.578;2023-02-02T19:11:37;21.65;;;7.97;;
23555;SDS011;11956;53.184;8.578;2023-02-02T19:14:44;20.27;;;7.60;;
23555;SDS011;11956;53.184;8.578;2023-02-02T19:17:45;27.00;;;9.15;;
23555;SDS011;11956;53.184;8.578;2023-02-02T19:20:50;21.10;;;8.57;;
23555;SDS011;11956;53.184;8.578;2023-02-02T19:23:51;26.25;;;10.63;;
23555;SDS011;11956;53.184;8.578;2023-02-02T19:26:52;20.75;;;10.40;;
23555;SDS011;11956;53.184;8.578;2023-02-02T19:36:38;23.05;;;13.02;;
23555;SDS011;11956;53.184;8.578;2023-02-02T19:39:45;32.28;;;17.02;;
23555;SDS011;11956;53.184;8.578;2023-02-02T19:42:47;35.38;;;18.75;;
23555;SDS011;11956;53.184;8.578;2023-02-02T19:45:54;29.00;;;18.00;;
23555;SDS011;11956;53.184;8.578;2023-02-02T19:49:11;35.08;;;20.65;;
23555;SDS011;11956;53.184;8.578;2023-02-02T19:52:21;38.70;;;22.00;;
23555;SDS011;11956;53.184;8.578;2023-02-02T19:55:28;27.55;;;17.48;;
23555;SDS011;11956;53.184;8.578;2023-02-02T19:58:35;36.53;;;21.05;;
23555;SDS011;11956;53.184;8.578;2023-02-02T20:01:36;39.22;;;22.33;;
23555;SDS011;11956;53.184;8.578;2023-02-02T20:04:37;35.25;;;21.48;;
23555;SDS011;11956;53.184;8.578;2023-02-02T20:07:38;46.72;;;25.38;;
23555;SDS011;11956;53.184;8.578;2023-02-02T20:10:39;29.92;;;19.83;;
23555;SDS011;11956;53.184;8.578;2023-02-02T20:13:44;40.38;;;24.40;;
23555;SDS011;11956;53.184;8.578;2023-02-02T20:16:48;46.78;;;26.50;;
23555;SDS011;11956;53.184;8.578;2023-02-02T20:19:52;35.78;;;23.02;;
23555;SDS011;11956;53.184;8.578;2023-02-02T20:22:54;40.65;;;25.85;;
23555;SDS011;11956;53.184;8.578;2023-02-02T20:25:56;39.72;;;24.83;;
23555;SDS011;11956;53.184;8.578;2023-02-02T20:28:59;47.72;;;28.10;;
23555;SDS011;11956;53.184;8.578;2023-02-02T20:32:18;47.50;;;28.15;;